Time;durP1;ratioP1;P1;durP2;ratioP2;P2;SDS_P1;SDS_P2;PMS_P1;PMS_P2;Temp;Humidity;BMP_temperature;BMP_pressure;BME280_temperature;BME280_humidity;BME280_pressure;Samples;Min_cycle;Max_cycle;Signal;HPM_P1;HPM_P2
2024/03/08 00:00:18;;;;;;;1.98;1.17;;;;;;;0.17;69.83;101790.47;5125852;28;20026;-63
2024/03/08 00:02:45;;;;;;;4.32;1.65;;;;;;;0.19;69.68;101791.41;5125716;28;20038;-65
2024/03/08 00:05:11;;;;;;;3.05;1.50;;;;;;;0.19;69.46;101790.53;5125908;28;20045;-65
2024/03/08 00:07:39;;;;;;;1.30;1.13;;;;;;;0.15;69.67;101789.47;5125497;28;20079;-63
2024/03/08 00:10:06;;;;;;;1.20;1.10;;;;;;;0.09;69.58;101781.47;5107241;28;20432;-63
2024/03/08 00:12:31;;;;;;;3.20;2.50;;;;;;;0.11;69.77;101783.31;5125697;28;20035;-63
2024/03/08 00:14:57;;;;;;;18.88;2.40;;;;;;;0.09;69.79;101784.91;5125463;28;20027;-64
2024/03/08 00:17:22;;;;;;;1.90;1.23;;;;;;;0.13;69.96;101790.19;5125642;28;20487;-63
2024/03/08 00:19:49;;;;;;;2.05;1.45;;;;;;;0.07;70.01;101785.59;5125840;28;20086;-63
2024/03/08 00:22:16;;;;;;;17.02;1.88;;;;;;;0.07;69.97;101781.38;5125537;28;20463;-63
2024/03/08 00:24:41;;;;;;;2.28;2.17;;;;;;;0.07;70.08;101783.03;5125595;28;20023;-64
2024/03/08 00:27:08;;;;;;;2.78;1.88;;;;;;;0.05;70.09;101779.53;5124551;28;20110;-64
2024/03/08 00:29:34;;;;;;;1.17;1.17;;;;;;;0.01;70.11;101775.94;5125699;28;20019;-64
2024/03/08 00:31:59;;;;;;;2.25;1.60;;;;;;;-0.01;70.22;101775.84;5125419;28;20084;-63
2024/03/08 00:34:25;;;;;;;1.63;1.52;;;;;;;-0.02;70.28;101780.84;5125438;28;20424;-63
2024/03/08 00:36:51;;;;;;;4.60;2.50;;;;;;;-0.05;70.19;101785.78;5107188;28;20024;-64
2024/03/08 00:39:17;;;;;;;2.05;1.40;;;;;;;-0.04;69.96;101782.44;5125352;28;20028;-64
2024/03/08 00:41:44;;;;;;;0.77;0.77;;;;;;;-0.09;69.83;101769.41;5125589;28;20020;-64
2024/03/08 00:44:10;;;;;;;1.60;1.27;;;;;;;-0.11;69.95;101770.97;5106801;28;20486;-65
2024/03/08 00:46:35;;;;;;;2.75;2.47;;;;;;;-0.18;69.96;101771.44;5125201;28;20027;-64
2024/03/08 00:49:01;;;;;;;1.25;1.20;;;;;;;-0.17;69.87;101766.41;5125386;28;20024;-64
2024/03/08 00:51:26;;;;;;;1.17;1.08;;;;;;;-0.22;69.89;101764.41;5125309;28;20028;-64
2024/03/08 00:53:52;;;;;;;1.50;1.40;;;;;;;-0.24;69.82;101773.63;5123977;28;20035;-64
2024/03/08 00:56:17;;;;;;;2.65;1.13;;;;;;;-0.30;69.83;101762.28;5125118;28;20031;-64
2024/03/08 00:58:42;;;;;;;1.17;1.13;;;;;;;-0.39;70.02;101754.97;5125154;28;20015;-64
2024/03/08 01:01:09;;;;;;;2.33;2.17;;;;;;;-0.40;70.16;101757.44;5125157;28;20053;-64
2024/03/08 01:03:35;;;;;;;4.45;3.72;;;;;;;-0.41;69.80;101765.84;5125269;28;20060;-65
2024/03/08 01:06:01;;;;;;;2.22;2.03;;;;;;;-0.45;69.89;101762.28;5125147;28;20114;-65
2024/03/08 01:08:27;;;;;;;1.75;1.65;;;;;;;-0.49;69.91;101750.09;5124922;28;20059;-65
2024/03/08 01:10:52;;;;;;;8.02;2.50;;;;;;;-0.49;70.06;101757.75;5127742;28;20023;-63
2024/03/08 01:13:19;;;;;;;7.47;2.00;;;;;;;-0.48;70.03;101764.63;5129169;28;20024;-64
2024/03/08 01:15:44;;;;;;;3.95;1.55;;;;;;;-0.50;70.06;101761.09;5128968;28;20073;-64
2024/03/08 01:18:10;;;;;;;2.60;1.45;;;;;;;-0.54;69.79;101754.94;5129027;28;20028;-65
2024/03/08 01:20:35;;;;;;;1.50;1.40;;;;;;;-0.54;69.93;101749.84;5110537;28;20079;-64
2024/03/08 01:23:01;;;;;;;6.63;3.10;;;;;;;-0.55;69.77;101753.19;5128956;28;20023;-64
2024/03/08 01:25:27;;;;;;;5.93;2.53;;;;;;;-0.57;69.67;101748.75;5128717;28;20051;-65
2024/03/08 01:27:53;;;;;;;1.42;1.33;;;;;;;-0.59;69.77;101741.03;5128894;28;20027;-65
2024/03/08 01:30:19;;;;;;;1.38;1.27;;;;;;;-0.65;69.99;101739.00;5127445;28;20023;-65
2024/03/08 01:32:44;;;;;;;1.60;1.48;;;;;;;-0.64;69.68;101737.34;5110043;28;20019;-65
2024/03/08 01:35:10;;;;;;;0.90;0.80;;;;;;;-0.69;69.80;101728.53;5128621;28;20072;-64
2024/03/08 01:37:36;;;;;;;1.63;1.52;;;;;;;-0.71;69.69;101725.00;5127492;28;20023;-65
2024/03/08 01:40:03;;;;;;;9.52;2.05;;;;;;;-0.74;69.75;101733.34;5128703;28;20019;-64
2024/03/08 01:42:28;;;;;;;2.60;1.35;;;;;;;-0.78;69.83;101729.72;5127133;28;20026;-65
2024/03/08 01:44:54;;;;;;;1.63;1.55;;;;;;;-0.80;69.91;101720.25;5128440;28;20083;-65
2024/03/08 01:47:22;;;;;;;1.95;1.75;;;;;;;-0.83;69.94;101726.03;5128319;28;20483;-64
2024/03/08 01:49:49;;;;;;;4.28;1.63;;;;;;;-0.89;70.26;101716.34;5128304;28;20015;-65
2024/03/08 01:52:15;;;;;;;5.32;2.10;;;;;;;-0.88;70.18;101723.19;5128445;28;20028;-64
2024/03/08 01:54:41;;;;;;;1.70;1.45;;;;;;;-0.94;70.27;101711.78;5128122;28;20427;-64
2024/03/08 01:57:06;;;;;;;2.20;2.00;;;;;;;-0.94;70.51;101717.72;5128265;28;20039;-64
2024/03/08 01:59:32;;;;;;;1.88;1.48;;;;;;;-0.97;70.72;101709.00;5127022;28;20080;-64
2024/03/08 02:02:01;;;;;;;1.08;1.00;;;;;;;-0.98;70.60;101704.72;5126765;28;20132;-65
2024/03/08 02:04:28;;;;;;;1.45;1.40;;;;;;;-0.99;70.69;101706.38;5128025;28;20019;-64
2024/03/08 02:06:53;;;;;;;1.50;1.40;;;;;;;-1.05;70.55;101694.16;5127924;28;20024;-65
2024/03/08 02:09:19;;;;;;;0.80;0.80;;;;;;;-1.02;70.60;101699.44;5127917;28;20062;-64
2024/03/08 02:11:45;;;;;;;1.05;0.95;;;;;;;-1.00;70.68;101697.88;5126518;28;20112;-65
2024/03/08 02:14:11;;;;;;;1.65;0.95;;;;;;;-1.00;70.67;101695.31;5127786;28;20071;-65
2024/03/08 02:16:37;;;;;;;1.00;1.00;;;;;;;-1.02;70.91;101689.22;5127765;28;20030;-64
2024/03/08 02:19:03;;;;;;;4.43;1.35;;;;;;;-0.98;70.89;101689.41;5127925;28;20167;-64
2024/03/08 02:21:29;;;;;;;0.73;0.73;;;;;;;-0.96;70.97;101683.63;5109294;28;20118;-64
2024/03/08 02:23:55;;;;;;;2.25;1.60;;;;;;;-1.01;71.19;101670.59;5126434;28;20027;-63
2024/03/08 02:26:20;;;;;;;2.80;2.60;;;;;;;-0.88;71.44;101682.41;5127754;28;20019;-64
2024/03/08 02:28:46;;;;;;;1.63;1.52;;;;;;;-0.83;71.48;101686.91;5109290;28;20023;-63
2024/03/08 02:31:12;;;;;;;1.58;1.48;;;;;;;-0.82;71.65;101688.66;5127229;28;20102;-64
2024/03/08 02:33:37;;;;;;;1.60;1.48;;;;;;;-0.83;71.54;101685.22;5127310;28;20019;-63
2024/03/08 02:36:03;;;;;;;0.93;0.93;;;;;;;-0.86;71.45;101671.44;5127547;28;20046;-65
2024/03/08 02:38:29;;;;;;;1.50;1.30;;;;;;;-0.88;71.37;101672.19;5127400;28;20585;-64
2024/03/08 02:40:54;;;;;;;0.73;0.73;;;;;;;-0.85;71.34;101675.72;5127229;28;20020;-64
2024/03/08 02:43:22;;;;;;;1.50;1.40;;;;;;;-0.84;71.23;101678.38;5127344;28;20053;-64
2024/03/08 02:45:47;;;;;;;1.63;1.52;;;;;;;-0.84;71.18;101670.72;5127216;28;20027;-64
2024/03/08 02:48:14;;;;;;;5.43;2.10;;;;;;;-0.84;71.25;101665.63;5127214;28;20049;-64
2024/03/08 02:50:42;;;;;;;0.55;0.55;;;;;;;-0.85;71.17;101671.53;5127231;28;20023;-64
2024/03/08 02:53:08;;;;;;;0.88;0.88;;;;;;;-0.86;71.06;101673.97;5108835;28;20030;-63
2024/03/08 02:55:35;;;;;;;1.67;1.13;;;;;;;-0.88;71.10;101668.78;5127196;28;20027;-64
2024/03/08 02:58:03;;;;;;;3.90;2.00;;;;;;;-0.92;70.79;101659.19;5127042;28;20054;-65
2024/03/08 03:00:30;;;;;;;2.88;1.23;;;;;;;-0.96;71.03;101655.59;5127060;28;20415;-64
2024/03/08 03:02:56;;;;;;;1.63;1.52;;;;;;;-0.96;70.96;101658.16;5126942;28;20072;-64
2024/03/08 03:05:22;;;;;;;1.02;0.80;;;;;;;-1.02;70.95;101651.00;5126886;28;20027;-65
2024/03/08 03:07:48;;;;;;;0.85;0.85;;;;;;;-1.02;70.95;101653.53;5126626;28;20040;-65
2024/03/08 03:10:16;;;;;;;1.48;1.35;;;;;;;-1.07;70.98;101657.47;5108675;28;20023;-64
2024/03/08 03:12:42;;;;;;;3.25;2.30;;;;;;;-1.17;71.03;101647.53;5126984;28;20024;-64
2024/03/08 03:15:08;;;;;;;1.98;1.80;;;;;;;-1.10;71.13;101654.75;5126936;28;20023;-64
2024/03/08 03:17:34;;;;;;;4.50;2.75;;;;;;;-1.22;71.17;101633.63;5108262;28;20031;-64
2024/03/08 03:20:02;;;;;;;2.85;2.40;;;;;;;-1.15;71.02;101651.94;5126569;28;20045;-64
2024/03/08 03:22:30;;;;;;;5.10;2.60;;;;;;;-1.15;71.24;101643.41;5126739;28;20110;-63
2024/03/08 03:24:58;;;;;;;1.75;1.65;;;;;;;-1.15;70.90;101639.19;5126509;28;20031;-64
2024/03/08 03:27:24;;;;;;;2.42;2.25;;;;;;;-1.13;70.86;101647.81;5126612;28;20023;-65
2024/03/08 03:29:51;;;;;;;1.45;1.40;;;;;;;-1.13;70.87;101636.72;5125086;28;20019;-64
2024/03/08 03:32:18;;;;;;;1.98;1.67;;;;;;;-1.12;70.96;101638.50;5124159;28;20028;-63
2024/03/08 03:34:44;;;;;;;2.33;2.13;;;;;;;-1.09;71.02;101641.25;5126308;28;20019;-63
2024/03/08 03:37:13;;;;;;;2.30;2.05;;;;;;;-1.08;71.04;101635.34;5126487;28;20103;-63
2024/03/08 03:39:51;;;;;;;0.82;0.82;;;;;;;-1.06;71.10;101638.88;5126201;28;20027;-64
2024/03/08 03:42:18;;;;;;;1.17;1.17;;;;;;;-1.02;70.99;101635.69;5126468;28;20035;-64
2024/03/08 03:44:47;;;;;;;3.33;3.08;;;;;;;-1.00;70.79;101630.69;5126169;28;20111;-64
2024/03/08 03:47:14;;;;;;;4.43;1.73;;;;;;;-1.00;70.70;101633.25;5126198;28;20031;-64
2024/03/08 03:49:40;;;;;;;1.30;1.20;;;;;;;-1.00;70.74;101636.69;5126080;28;20098;-63
2024/03/08 03:52:05;;;;;;;2.55;2.35;;;;;;;-0.98;70.47;101634.22;5126106;28;20019;-64
2024/03/08 03:54:31;;;;;;;1.50;1.00;;;;;;;-1.02;70.57;101628.06;5125411;28;20114;-64
2024/03/08 03:56:56;;;;;;;2.10;2.00;;;;;;;-1.03;70.44;101630.50;5126150;28;20059;-65
2024/03/08 03:59:22;;;;;;;1.83;1.73;;;;;;;-1.13;70.46;101622.31;5126037;28;20049;-65
2024/03/08 04:01:49;;;;;;;1.50;1.40;;;;;;;-1.13;70.35;101631.63;5125870;28;20042;-65
2024/03/08 04:04:14;;;;;;;2.40;1.55;;;;;;;-1.20;70.12;101616.78;5125715;28;20023;-64
2024/03/08 04:06:40;;;;;;;2.13;2.03;;;;;;;-1.38;70.15;101602.16;5125668;28;20076;-63
2024/03/08 04:09:05;;;;;;;2.58;1.90;;;;;;;-1.28;70.53;101626.50;5125685;28;20103;-65
2024/03/08 04:11:30;;;;;;;9.55;3.10;;;;;;;-1.41;70.74;101619.78;5125776;28;20019;-64
2024/03/08 04:13:56;;;;;;;0.88;0.88;;;;;;;-1.55;71.19;101611.31;5125187;28;20612;-63
2024/03/08 04:16:21;;;;;;;3.08;2.55;;;;;;;-1.48;71.45;101627.84;5125319;28;20049;-64
2024/03/08 04:18:47;;;;;;;1.77;1.65;;;;;;;-1.54;72.04;101636.88;5125704;28;20031;-63
2024/03/08 04:21:13;;;;;;;1.60;1.50;;;;;;;-1.53;71.59;101620.81;5125497;28;20034;-64
2024/03/08 04:23:38;;;;;;;1.20;1.20;;;;;;;-1.53;71.35;101623.34;5125563;28;20023;-63
2024/03/08 04:26:05;;;;;;;2.17;1.98;;;;;;;-1.51;71.22;101616.69;5125335;28;20456;-64
2024/03/08 04:28:31;;;;;;;4.60;2.25;;;;;;;-1.49;71.13;101614.25;5125574;28;20080;-64
2024/03/08 04:30:57;;;;;;;1.90;1.25;;;;;;;-1.52;71.12;101611.50;5125689;28;20049;-64
2024/03/08 04:33:23;;;;;;;0.90;0.90;;;;;;;-1.48;71.25;101612.56;5125086;28;20020;-63
2024/03/08 04:35:48;;;;;;;4.88;1.45;;;;;;;-1.53;70.96;101605.53;5125589;28;20112;-64
2024/03/08 04:38:15;;;;;;;2.65;1.73;;;;;;;-1.45;71.37;101618.72;5125430;28;20031;-64
2024/03/08 04:40:40;;;;;;;1.02;1.02;;;;;;;-1.52;71.41;101617.47;5125346;28;20031;-64
2024/03/08 04:43:07;;;;;;;0.95;0.88;;;;;;;-1.54;71.51;101606.31;5125363;28;20108;-64
2024/03/08 04:45:33;;;;;;;1.83;1.73;;;;;;;-1.51;71.47;101597.97;5127744;28;20100;-63
2024/03/08 04:47:59;;;;;;;2.03;1.00;;;;;;;-1.48;71.22;101599.81;5129401;28;20065;-64
2024/03/08 04:50:24;;;;;;;2.03;1.92;;;;;;;-1.50;71.53;101594.63;5129636;28;20031;-64
2024/03/08 04:52:49;;;;;;;0.90;0.90;;;;;;;-1.44;71.44;101596.69;5129460;28;20104;-63
2024/03/08 04:55:15;;;;;;;0.80;0.80;;;;;;;-1.45;71.46;101595.78;5110991;28;20087;-66
2024/03/08 04:57:41;;;;;;;5.85;1.75;;;;;;;-1.46;71.49;101591.50;5129582;28;20023;-63
2024/03/08 05:00:10;;;;;;;1.80;1.70;;;;;;;-1.51;71.19;101585.25;5110866;28;20405;-64
2024/03/08 05:02:39;;;;;;;2.85;1.38;;;;;;;-1.53;71.46;101595.34;5129248;28;20011;-64
2024/03/08 05:05:06;;;;;;;1.92;1.75;;;;;;;-1.51;71.50;101603.06;5110634;28;20028;-63
2024/03/08 05:07:32;;;;;;;4.00;1.85;;;;;;;-1.60;71.61;101593.22;5128678;28;20052;-65
2024/03/08 05:09:58;;;;;;;1.42;1.27;;;;;;;-1.59;71.63;101594.97;5129573;28;20023;-62
2024/03/08 05:12:24;;;;;;;1.48;1.25;;;;;;;-1.65;71.95;101589.50;5129357;28;20037;-64
2024/03/08 05:14:49;;;;;;;2.83;1.95;;;;;;;-1.64;71.77;101593.81;5128834;28;20049;-64
2024/03/08 05:17:16;;;;;;;1.52;1.42;;;;;;;-1.64;71.69;101588.72;5128844;28;20098;-64
2024/03/08 05:19:41;;;;;;;0.82;0.82;;;;;;;-1.64;71.65;101592.13;5127469;28;20027;-63
2024/03/08 05:22:07;;;;;;;9.60;1.02;;;;;;;-1.65;71.55;101586.97;5110374;28;20031;-65
2024/03/08 05:24:33;;;;;;;1.70;1.60;;;;;;;-1.67;71.70;101589.41;5129245;28;20430;-63
2024/03/08 05:27:00;;;;;;;0.90;0.90;;;;;;;-1.69;71.64;101590.97;5128858;28;20055;-63
2024/03/08 05:29:26;;;;;;;5.25;1.23;;;;;;;-1.66;71.59;101590.31;5128890;28;20039;-63
2024/03/08 05:31:52;;;;;;;1.65;1.20;;;;;;;-1.66;71.68;101591.16;5128687;28;20038;-64
2024/03/08 05:34:19;;;;;;;1.23;1.15;;;;;;;-1.63;71.88;101591.34;5128643;28;20032;-64
2024/03/08 05:36:46;;;;;;;2.97;2.10;;;;;;;-1.68;71.78;101574.03;5110384;28;20475;-64
2024/03/08 05:39:15;;;;;;;7.13;3.33;;;;;;;-1.59;72.06;101591.53;5128628;28;20035;-63
2024/03/08 05:41:42;;;;;;;1.13;1.13;;;;;;;-1.57;72.33;101595.06;5128671;28;20102;-63
2024/03/08 05:44:08;;;;;;;1.15;1.10;;;;;;;-1.53;72.24;101582.59;5128626;28;20034;-64
2024/03/08 05:46:35;;;;;;;0.80;0.80;;;;;;;-1.48;72.51;101584.53;5128429;28;20025;-63
2024/03/08 05:49:05;;;;;;;2.40;1.85;;;;;;;-1.42;72.50;101579.84;5128647;28;20043;-64
2024/03/08 05:51:31;;;;;;;2.60;1.25;;;;;;;-1.37;72.66;101574.22;5128565;28;20023;-64
2024/03/08 05:53:56;;;;;;;0.82;0.82;;;;;;;-1.26;72.83;101581.59;5128530;28;20020;-65
2024/03/08 05:56:23;;;;;;;0.80;0.80;;;;;;;-1.14;72.94;101577.25;5109536;28;20039;-64
2024/03/08 05:58:50;;;;;;;1.38;1.27;;;;;;;-1.04;73.15;101578.63;5128177;28;20042;-64
2024/03/08 06:01:16;;;;;;;2.50;1.38;;;;;;;-0.91;73.21;101584.47;5128284;28;20023;-64
2024/03/08 06:03:44;;;;;;;0.85;0.85;;;;;;;-0.83;73.20;101579.81;5128355;28;20024;-65
2024/03/08 06:06:12;;;;;;;4.93;3.20;;;;;;;-0.69;73.32;101586.59;5128180;28;20116;-65
2024/03/08 06:08:38;;;;;;;2.47;1.60;;;;;;;-0.51;73.32;101583.28;5127821;28;20142;-64
2024/03/08 06:11:04;;;;;;;1.98;1.40;;;;;;;-0.39;73.32;101583.09;5128199;28;20046;-65
2024/03/08 06:13:31;;;;;;;2.42;1.17;;;;;;;-0.39;73.31;101578.00;5127733;28;20040;-65
2024/03/08 06:15:56;;;;;;;0.95;0.95;;;;;;;-0.43;72.90;101573.53;5127933;28;20106;-65
2024/03/08 06:18:22;;;;;;;0.60;0.60;;;;;;;-0.45;72.89;101577.66;5127913;28;20027;-64
2024/03/08 06:20:47;;;;;;;2.22;1.75;;;;;;;-0.52;72.96;101579.88;5127626;28;20024;-65
2024/03/08 06:23:17;;;;;;;1.17;1.08;;;;;;;-0.54;73.03;101583.13;5126413;28;20031;-64
2024/03/08 06:25:43;;;;;;;3.03;2.72;;;;;;;-0.53;73.21;101578.09;5126385;28;20108;-65
2024/03/08 06:28:08;;;;;;;1.25;1.20;;;;;;;-0.48;73.13;101577.50;5126360;28;20020;-65
2024/03/08 06:30:34;;;;;;;1.73;1.63;;;;;;;-0.43;73.23;101578.63;5108541;28;20023;-63
2024/03/08 06:33:00;;;;;;;2.17;2.08;;;;;;;-0.27;73.73;101576.13;5108996;28;20031;-64
2024/03/08 06:35:25;;;;;;;1.45;1.35;;;;;;;0.14;74.04;101569.75;5125891;28;20016;-63
2024/03/08 06:37:51;;;;;;;1.40;1.30;;;;;;;0.59;74.43;101572.09;5127200;28;20114;-63
2024/03/08 06:40:16;;;;;;;1.08;0.98;;;;;;;1.04;74.84;101570.91;5126789;28;20456;-64
2024/03/08 06:42:42;;;;;;;2.33;1.88;;;;;;;1.67;75.32;101574.75;5127098;28;20092;-65
2024/03/08 06:45:09;;;;;;;3.33;2.25;;;;;;;2.16;75.42;101565.88;5127162;28;20024;-65
2024/03/08 06:47:35;;;;;;;2.25;1.85;;;;;;;2.92;75.98;101570.84;5126726;28;20016;-63
2024/03/08 06:50:01;;;;;;;4.72;2.50;;;;;;;3.51;75.82;101569.78;5127422;28;20044;-63
2024/03/08 06:52:26;;;;;;;7.32;1.80;;;;;;;4.00;75.74;101558.75;5127395;28;20064;-63
2024/03/08 06:54:52;;;;;;;7.93;2.55;;;;;;;4.32;75.08;101564.19;5126753;28;20024;-64
2024/03/08 06:57:20;;;;;;;2.47;2.28;;;;;;;4.79;75.33;101558.13;5108861;28;20023;-64
2024/03/08 06:59:45;;;;;;;4.13;2.22;;;;;;;5.17;75.22;101548.22;5126969;28;20229;-64
2024/03/08 07:02:11;;;;;;;3.92;1.95;;;;;;;5.89;76.12;101557.25;5108508;28;20483;-65
2024/03/08 07:04:37;;;;;;;2.10;1.90;;;;;;;6.57;75.04;101558.31;5108781;28;20015;-64
2024/03/08 07:07:09;;;;;;;5.57;2.65;;;;;;;7.17;74.79;101558.97;5107933;28;20015;-65
2024/03/08 07:09:37;;;;;;;3.95;2.13;;;;;;;7.67;74.02;101549.78;5127133;28;20038;-63
2024/03/08 07:12:03;;;;;;;3.10;2.75;;;;;;;7.81;72.23;101554.38;5127237;28;20024;-62
2024/03/08 07:14:30;;;;;;;2.47;2.28;;;;;;;7.94;71.92;101533.09;5126949;28;20023;-64
2024/03/08 07:16:56;;;;;;;4.10;2.53;;;;;;;8.25;71.78;101542.31;5126744;28;20049;-63
2024/03/08 07:19:21;;;;;;;6.07;2.70;;;;;;;8.57;72.23;101551.56;5108666;28;20020;-64
2024/03/08 07:21:47;;;;;;;4.18;2.88;;;;;;;9.16;71.76;101545.69;5108430;28;20039;-63
2024/03/08 07:24:37;;;;;;;3.40;2.72;;;;;;;9.61;70.54;101537.69;5126807;28;20022;-64
2024/03/08 07:27:06;;;;;;;5.38;2.53;;;;;;;9.96;70.40;101544.19;5126875;28;20023;-65
2024/03/08 07:29:35;;;;;;;5.07;3.17;;;;;;;10.52;69.72;101546.59;5126973;28;20035;-64
2024/03/08 07:34:25;;;;;;;5.10;2.95;;;;;;;10.90;67.82;101546.06;5126611;28;20582;-64
2024/03/08 07:36:51;;;;;;;2.83;2.03;;;;;;;10.70;67.69;101548.50;5126255;28;20024;-63
2024/03/08 07:39:17;;;;;;;3.45;2.25;;;;;;;10.71;66.81;101547.63;5126606;28;20071;-65
2024/03/08 07:41:42;;;;;;;3.47;2.65;;;;;;;10.43;65.76;101539.56;5126347;28;20456;-63
2024/03/08 07:44:08;;;;;;;3.63;2.38;;;;;;;10.28;64.23;101541.13;5126470;28;20011;-64
2024/03/08 07:46:36;;;;;;;6.97;2.88;;;;;;;10.36;66.63;101536.00;5126068;28;20019;-63
2024/03/08 07:49:03;;;;;;;2.75;2.30;;;;;;;10.38;64.72;101520.44;5126129;28;20019;-64
2024/03/08 07:51:28;;;;;;;5.97;2.60;;;;;;;10.08;62.83;101511.47;5126108;28;20058;-65
2024/03/08 07:53:54;;;;;;;3.78;2.88;;;;;;;9.83;61.84;101522.41;5126250;28;20019;-65
2024/03/08 07:56:21;;;;;;;2.45;2.05;;;;;;;9.36;59.57;101515.75;5126120;28;20020;-64
2024/03/08 07:58:48;;;;;;;2.35;2.00;;;;;;;9.05;58.87;101526.50;5126151;28;20059;-64
2024/03/08 08:01:20;;;;;;;6.47;2.13;;;;;;;8.51;59.04;101521.25;5126043;28;20369;-64
2024/03/08 08:03:46;;;;;;;4.47;2.15;;;;;;;8.29;59.55;101521.72;5124615;28;20558;-63
2024/03/08 08:06:15;;;;;;;1.83;1.52;;;;;;;8.15;59.49;101524.03;5126013;28;20028;-63
2024/03/08 08:08:44;;;;;;;4.47;2.70;;;;;;;7.90;60.17;101522.66;5125654;28;20044;-64
2024/03/08 08:11:11;;;;;;;2.03;1.83;;;;;;;7.97;60.24;101521.09;5125500;28;20058;-64
2024/03/08 08:13:37;;;;;;;3.65;1.83;;;;;;;8.05;60.53;101524.72;5126026;28;20053;-63
2024/03/08 08:16:03;;;;;;;2.92;2.05;;;;;;;8.28;59.67;101527.75;5125724;28;20060;-64
2024/03/08 08:18:29;;;;;;;2.50;1.98;;;;;;;8.49;59.97;101525.53;5124108;28;20027;-65
2024/03/08 08:20:55;;;;;;;6.15;2.22;;;;;;;8.57;59.67;101518.81;5126093;28;20072;-64
2024/03/08 08:23:21;;;;;;;9.45;2.17;;;;;;;8.91;59.78;101519.38;5125767;28;20065;-64
2024/03/08 08:25:49;;;;;;;4.15;2.28;;;;;;;9.30;60.30;101530.34;5124369;28;20019;-63
2024/03/08 08:28:17;;;;;;;2.53;1.92;;;;;;;9.83;58.47;101527.59;5125884;28;20015;-64
2024/03/08 08:30:43;;;;;;;2.28;1.77;;;;;;;9.82;57.37;101517.22;5125514;28;20016;-65
2024/03/08 08:33:10;;;;;;;11.10;2.67;;;;;;;9.62;57.41;101523.00;5125356;28;20020;-64
2024/03/08 08:35:36;;;;;;;4.13;2.47;;;;;;;9.88;57.72;101528.53;5125406;28;20026;-65
2024/03/08 08:38:03;;;;;;;2.53;1.80;;;;;;;10.44;56.54;101527.41;5124192;28;20091;-65
2024/03/08 08:40:30;;;;;;;2.30;1.90;;;;;;;10.58;55.61;101522.38;5107083;28;20475;-64
2024/03/08 08:42:57;;;;;;;1.88;1.73;;;;;;;10.75;56.51;101520.81;5125070;28;20024;-64
2024/03/08 08:45:23;;;;;;;2.13;1.80;;;;;;;11.07;56.91;101524.53;5125487;28;20099;-64
2024/03/08 08:47:49;;;;;;;3.33;2.10;;;;;;;11.42;56.38;101519.59;5125250;28;20028;-64
2024/03/08 08:50:16;;;;;;;2.90;1.65;;;;;;;11.54;54.51;101514.44;5125521;28;20068;-63
2024/03/08 08:52:44;;;;;;;2.17;1.70;;;;;;;11.49;54.52;101511.81;5125344;28;20019;-64
2024/03/08 08:55:14;;;;;;;1.70;1.17;;;;;;;11.70;54.09;101506.72;5123780;28;20376;-65
2024/03/08 08:57:42;;;;;;;3.17;1.73;;;;;;;12.02;54.54;101506.84;5125212;28;20023;-65
2024/03/08 09:00:10;;;;;;;1.67;1.50;;;;;;;12.20;54.09;101504.31;5125596;28;20031;-64
2024/03/08 09:02:37;;;;;;;2.70;1.45;;;;;;;12.08;53.40;101502.53;5125091;28;20020;-65
2024/03/08 09:05:03;;;;;;;2.00;1.30;;;;;;;11.89;53.64;101498.13;5106748;28;20015;-65
2024/03/08 09:07:28;;;;;;;3.28;1.92;;;;;;;11.73;52.94;101501.53;5125149;28;20051;-64
2024/03/08 09:09:58;;;;;;;5.95;1.30;;;;;;;11.45;52.21;101498.78;5125221;28;20032;-63
2024/03/08 09:12:24;;;;;;;2.50;1.42;;;;;;;11.11;53.17;101497.72;5123946;28;20019;-65
2024/03/08 09:14:49;;;;;;;2.53;1.88;;;;;;;11.22;54.17;101502.13;5125310;28;20038;-64
2024/03/08 09:17:20;;;;;;;1.40;1.30;;;;;;;11.27;54.04;101490.03;5123574;28;20114;-64
2024/03/08 09:19:47;;;;;;;3.50;1.65;;;;;;;11.64;53.34;101487.63;5125114;28;20049;-65
2024/03/08 09:22:13;;;;;;;3.33;1.85;;;;;;;11.65;52.01;101488.47;5124978;28;20023;-64
2024/03/08 09:24:38;;;;;;;3.00;1.80;;;;;;;11.54;51.15;101483.22;5124886;28;20066;-64
2024/03/08 09:27:04;;;;;;;2.85;2.17;;;;;;;11.46;50.41;101482.31;5125026;28;20028;-65
2024/03/08 09:29:29;;;;;;;7.10;1.38;;;;;;;11.99;52.45;101487.75;5124920;28;20104;-64
2024/03/08 09:31:55;;;;;;;2.90;1.80;;;;;;;12.22;51.96;101480.03;5108979;28;20023;-63
2024/03/08 09:34:21;;;;;;;2.63;1.50;;;;;;;12.30;50.44;101469.63;5127529;28;20020;-64
2024/03/08 09:36:46;;;;;;;4.28;1.88;;;;;;;12.29;51.56;101472.22;5128674;28;20030;-64
2024/03/08 09:39:16;;;;;;;1.63;1.40;;;;;;;12.44;50.71;101474.00;5110452;28;20031;-65
2024/03/08 09:41:43;;;;;;;2.13;1.30;;;;;;;12.16;50.02;101466.16;5128944;28;20083;-64
2024/03/08 09:44:09;;;;;;;6.38;1.27;;;;;;;12.01;49.18;101471.25;5128561;28;20043;-65
2024/03/08 09:46:34;;;;;;;1.80;1.52;;;;;;;12.23;48.77;101465.28;5128677;28;20055;-65
2024/03/08 09:49:01;;;;;;;1.90;1.38;;;;;;;12.01;48.12;101463.47;5128545;28;20019;-63
2024/03/08 09:51:29;;;;;;;1.98;1.60;;;;;;;11.75;49.03;101453.84;5128509;28;20049;-65
2024/03/08 09:53:54;;;;;;;10.60;1.73;;;;;;;11.75;48.83;101461.66;5128733;28;20039;-64
2024/03/08 09:56:23;;;;;;;1.98;1.50;;;;;;;11.74;48.53;101456.44;5128289;28;20023;-64
2024/03/08 10:01:33;;;;;;;2.95;1.70;;;;;;;11.87;48.13;101453.00;5128558;28;20039;-63
2024/03/08 10:03:58;;;;;;;3.35;1.25;;;;;;;12.00;48.43;101453.03;5128306;28;20016;-64
2024/03/08 10:06:24;;;;;;;3.47;1.88;;;;;;;12.48;48.70;101454.88;5128212;28;20028;-64
2024/03/08 10:08:51;;;;;;;3.33;1.30;;;;;;;12.87;48.57;101450.56;5128379;28;20542;-64
2024/03/08 10:11:17;;;;;;;5.55;1.95;;;;;;;13.14;47.31;101440.94;5128026;28;20072;-63
2024/03/08 10:13:46;;;;;;;1.20;1.10;;;;;;;13.25;47.17;101440.91;5128188;28;20023;-65
2024/03/08 10:16:12;;;;;;;3.95;1.00;;;;;;;13.67;46.36;101439.03;5127910;28;20023;-65
2024/03/08 10:18:37;;;;;;;1.48;1.27;;;;;;;13.90;44.19;101440.66;5127904;28;20332;-65
2024/03/08 10:21:09;;;;;;;1.17;0.90;;;;;;;13.97;43.25;101431.91;5109625;28;20051;-64
2024/03/08 10:23:35;;;;;;;1.13;0.90;;;;;;;13.92;42.76;101433.69;5128001;28;20073;-64
2024/03/08 10:26:14;;;;;;;1.90;1.52;;;;;;;14.05;42.97;101431.84;5127796;28;20024;-65
2024/03/08 10:28:45;;;;;;;2.17;1.45;;;;;;;14.04;42.34;101423.16;5127902;28;20023;-64
2024/03/08 10:31:10;;;;;;;2.92;1.30;;;;;;;14.25;41.87;101432.59;5127538;28;20539;-65
2024/03/08 10:33:37;;;;;;;2.40;1.55;;;;;;;14.59;41.81;101426.22;5127547;28;20034;-64
2024/03/08 10:36:05;;;;;;;8.40;1.55;;;;;;;14.65;40.19;101429.69;5127646;28;20023;-63
2024/03/08 10:38:34;;;;;;;6.10;1.42;;;;;;;14.71;40.63;101430.47;5126320;28;20046;-64
2024/03/08 10:41:01;;;;;;;3.67;2.00;;;;;;;14.73;40.13;101422.59;5127516;28;20027;-66
2024/03/08 10:43:31;;;;;;;4.95;1.55;;;;;;;14.73;40.62;101407.81;5126126;28;20104;-64
2024/03/08 10:46:25;;;;;;;1.50;1.33;;;;;;;15.31;39.89;101422.91;5127262;28;20019;-65
2024/03/08 10:48:52;;;;;;;5.03;1.77;;;;;;;15.70;40.44;101417.16;5127169;28;20118;-66
2024/03/08 10:51:19;;;;;;;1.48;1.08;;;;;;;15.86;39.21;101409.13;5126057;28;20242;-65
2024/03/08 10:53:48;;;;;;;1.33;1.23;;;;;;;15.86;39.29;101412.59;5127256;28;20023;-64
2024/03/08 10:56:14;;;;;;;2.95;1.65;;;;;;;16.02;38.93;101411.53;5127152;28;20262;-65
2024/03/08 10:58:40;;;;;;;4.78;1.95;;;;;;;15.97;38.19;101401.09;5127163;28;20087;-65
2024/03/08 11:01:06;;;;;;;3.33;1.27;;;;;;;15.78;38.77;101404.00;5127228;28;20028;-64
2024/03/08 11:03:44;;;;;;;1.95;1.63;;;;;;;15.83;39.34;101401.31;5108475;28;20015;-64
2024/03/08 11:06:37;;;;;;;2.00;1.80;;;;;;;15.88;39.03;101409.09;5108551;28;20027;-64
2024/03/08 11:09:03;;;;;;;2.05;1.50;;;;;;;15.92;39.17;101400.31;5127059;28;20052;-65
2024/03/08 11:11:34;;;;;;;1.10;1.00;;;;;;;15.98;38.82;101398.50;5126258;28;20496;-65
2024/03/08 11:14:04;;;;;;;1.37;1.27;;;;;;;16.15;38.40;101401.75;5126602;28;20051;-65
2024/03/08 11:16:30;;;;;;;2.92;2.03;;;;;;;16.30;37.91;101398.88;5126404;28;20024;-64
2024/03/08 11:19:04;;;;;;;1.73;1.30;;;;;;;16.63;37.86;101392.22;5108264;28;20019;-64
2024/03/08 11:21:33;;;;;;;1.58;1.15;;;;;;;17.19;37.04;101383.28;5126858;28;20023;-64
2024/03/08 11:24:05;;;;;;;1.83;1.30;;;;;;;17.29;35.99;101392.72;5126713;28;20379;-65
2024/03/08 11:26:31;;;;;;;2.42;1.38;;;;;;;17.21;36.02;101392.00;5126632;28;20020;-64
2024/03/08 11:29:28;;;;;;;1.10;1.00;;;;;;;17.47;35.37;101390.59;5126635;28;20026;-64